x

Stennis Test Facility (ostf1) Weather Station

10:50am - Wed 31st Aug 2016 All times are CDT. -5 hours from GMT.

  • Wind
    2mph, 7mph gusts
  • Air Temp 89°f
  • Sea Pressure 1012.6mb
  • Stennis Test Facility
  • Stennis Test Facility

More Historic Weather Station data

Upgrade to MSW Pro to gain access to the past 30 days of data for over 8000 Wavebouys and Weather Stations around the globe.

Join Pro

Comparision Forecast

View Surf forecast
   
Wed 08/31 10:50am 2 7 mph 1012.6mb 89f
9:50am 2 7 mph 1012.4mb 85f
8:50am 2 4 mph 1012.4mb 82f
7:50am  -  4 mph 1012.2mb 76f
6:50am 2
mph
1012.1mb 74f
5:50am  -  2 mph 1012.2mb 74f
4:50am  -  mph 1012.1mb 75f
3:50am  -  2 mph 1012.1mb 76f
2:50am  -  2 mph 1012.4mb 75f
1:50am  -  2 mph 1012.6mb 76f
12:50am  -  mph 1012.8mb 77f
Tue 08/30 11:50pm  -  mph 1012.8mb 77f
10:50pm  -  mph 1013.1mb 78f
9:50pm  -  mph 1013mb 79f
8:50pm  -  mph 1012.6mb 80f
7:50pm  -  2 mph 1012.1mb 82f
6:50pm 2 4 mph 1011.5mb 87f
5:50pm 4 7 mph 1012mb 89f
4:50pm 4 9 mph 1012.2mb 90f
3:50pm 4 9 mph 1012.6mb 91f
2:50pm 4 11 mph 1013.1mb 93f
1:50pm 2 11 mph 1013.8mb 92f
12:50pm 4 9 mph 1014.4mb 90f
11:50am 2 7 mph 1014.9mb 89f
10:50am 2 7 mph 1015mb 87f
9:50am 2 7 mph 1014.9mb 84f
8:50am 2 4 mph 1014.9mb 80f
7:50am 2
mph
1014.6mb 75f
6:50am  -  2 mph 1014.2mb 74f
5:50am 2
mph
1013.7mb 74f
4:50am  -  2 mph 1013.5mb 75f
3:50am  -  2 mph 1013.4mb 75f
2:50am  -  2 mph 1014.1mb 76f
1:50am  -  2 mph 1014.2mb 76f
12:50am  -  mph 1014.7mb 76f
Mon 08/29 11:50pm  -  mph 1015mb 77f
10:50pm  -  2 mph 1014.9mb 78f
9:50pm  -  2 mph 1014.8mb 78f
8:50pm  -  mph 1014.2mb 79f
7:50pm  -  2 mph 1013.8mb 80f
6:50pm  -  2 mph 1013.4mb 82f
5:50pm  -  mph 1013.9mb 82f
4:50pm  -  mph 1014.2mb 79f
3:50pm 2 9 mph 1014.6mb 85f
2:50pm 4 7 mph 1014.6mb 91f
1:50pm 2 7 mph 1015.5mb 91f
12:50pm 2 7 mph 1016.1mb 91f
11:50am 2 7 mph 1016.1mb 89f
10:50am 2 4 mph 1016.2mb 89f
9:50am 2 4 mph 1015.8mb 86f
8:50am 2 4 mph 1015.6mb 80f
7:50am  -  2 mph 1015.7mb 76f
6:50am  -  2 mph 1015mb 74f
5:50am 2
mph
1014.6mb 74f
4:50am 2
mph
1014.4mb 74f
3:50am  -  2 mph 1014.5mb 74f
2:50am  -  mph 1014.6mb 74f
1:50am  -  mph 1014.9mb 75f
12:50am  -  mph 1015.4mb 75f
Sun 08/28 11:50pm 2
mph
1015.7mb 75f
10:50pm  -  mph 1016.1mb 76f
9:50pm  -  2 mph 1015.6mb 76f
8:50pm  -  2 mph 1014.9mb 76f
7:50pm  -  2 mph 1014.5mb 76f
6:50pm  -  mph 1015.1mb 77f
5:50pm 2 9 mph 1015.7mb 77f
4:50pm  -  2 mph 1015.4mb 79f
3:50pm  -  2 mph 1015.4mb 77f
2:50pm  -  2 mph 1015.9mb 75f
1:50pm  -  2 mph 1016.4mb 81f
12:50pm  -  4 mph 1016.5mb 82f
11:50am  -  2 mph 1017mb 79f
10:50am  -  2 mph 1017.2mb 79f
9:50am  -  2 mph 1016.8mb 78f
8:50am  -  2 mph 1016.4mb 77f
7:50am 2 4 mph 1016.3mb 75f
6:50am 2
mph
1016.1mb 74f
5:50am  -  2 mph 1015.6mb 74f
4:50am 2
mph
1015mb 75f
3:50am 2
mph
1014.6mb 75f
2:50am  -  2 mph 1014.9mb 76f
1:50am  -  2 mph 1015.1mb 76f
12:50am  -  2 mph 1015.3mb 76f
Sat 08/27 11:50pm  -  2 mph 1015.8mb 77f
10:50pm  -  2 mph 1016.4mb 78f
9:50pm  -  mph 1016.1mb 78f
8:50pm  -  mph 1015.5mb 78f
7:50pm  -  mph 1015mb 80f
6:50pm 2 4 mph 1013.9mb 82f
5:50pm 4 11 mph 1013.3mb 85f